This is the latest recevied weather packets stored in our database for station/object W5HKR. If no packets are shown the sender has not sent any weather packets the latest 10 day(s).
| Time | Temp. | Humidity | Pressure | Rain* | Wind** | Luminosity | Snow |
|---|---|---|---|---|---|---|---|
| 1777741099 | 21.11° C | 48% | 993.8 hPa | 0 mm | - | - | - |
| 1777741068 | 18.33° C | 91% | 990.6 hPa | 0 mm | - | - | - |
| 1777740798 | 21.11° C | 46% | 994.2 hPa | 0 mm | - | - | - |
| 1777740499 | 21.11° C | 50% | 994.2 hPa | 0 mm | - | - | - |
| 1777740198 | 21.11° C | 49% | 994.2 hPa | 0 mm | - | - | - |
| 1777739988 | 21.11° C | 47% | 994.2 hPa | 0 mm | - | - | - |
| 1777739897 | 18.33° C | 91% | 990.6 hPa | 0 mm | - | - | - |
| 1777739597 | 21.11° C | 47% | 994.2 hPa | 0 mm | - | - | - |
| 1777739299 | 18.33° C | 91% | 990.6 hPa | 0 mm | - | - | - |
| 1777738998 | 20.56° C | 47% | 994.6 hPa | 0 mm | - | - | - |
| 1777738908 | 18.33° C | 91% | 990.6 hPa | 0 mm | - | - | - |
| 1777738698 | 20° C | 51% | 994.6 hPa | 0 mm | - | - | - |
| 1777738397 | 18.33° C | 91% | 990.6 hPa | 0 mm | - | - | - |
| 1777738100 | 20° C | 52% | 994.2 hPa | 0 mm | - | - | - |
| 1777737830 | 18.33° C | 91% | 990.6 hPa | 0 mm | - | - | - |
| 1777737798 | 18.33° C | 91% | 990.6 hPa | 0 mm | - | - | - |
| 1777737500 | 18.33° C | 91% | 990.6 hPa | 0 mm | - | - | - |
| 1777737199 | 18.33° C | 91% | 990.6 hPa | 0 mm | - | - | - |
| 1777736899 | 18.33° C | 91% | 990.6 hPa | 0 mm | - | - | - |
| 1777736749 | 19.44° C | 54% | 994 hPa | 0 mm | - | - | - |
| 1777736597 | 18.33° C | 91% | 990.6 hPa | 0 mm | - | - | - |
| 1777736297 | 18.33° C | 91% | 990.6 hPa | 0 mm | - | - | - |
| 1777735999 | 18.89° C | 57% | 993.9 hPa | 0 mm | - | - | - |
| 1777735700 | 18.89° C | 58% | 993.9 hPa | 0 mm | - | - | - |
| 1777735669 | 18.89° C | 58% | 993.9 hPa | 0 mm | - | - | - |
* Rain latest hour (hover to see other rain measurements)
** Current wind speed in m/s (hover to see current wind gust speed)